Terminal Aerodrome Forecast
Issued by NWS

Home | Current Version | Previous Version | Graphics & Text | Print | Product List | Glossary On
Versions: 1 2 3 4 5 6 7 8 9 10 11 12 13 14 15
000
FTUS42 KMHX 121810 AAA
TAFPGV
TAF AMD
KPGV 121810Z 1218/1318 07005KT 3SM -SNPL BR BKN030
      TEMPO 1218/1220 2SM -SN BR OVC010
     FM122100 02005KT 3SM -SNPL BR OVC010
      TEMPO 1221/1223 OVC007
     FM130000 VRB03KT 4SM BR OVC020
     FM130400 29004KT P6SM SCT010
     FM131400 34012G21KT P6SM SKC
      AMD LTD TO CLD VIS AND WIND=

USA.gov is the U.S. government's official web portal to all federal, state and local government web resources and services.